sensor_id;sensor_type;location;lat;lon;timestamp;P1;durP1;ratioP1;P2;durP2;ratioP2
8737;SDS011;4405;49.272;8.590;2023-09-19T00:00:03;1.13;;;0.90;;
8737;SDS011;4405;49.272;8.590;2023-09-19T00:02:31;1.30;;;1.20;;
8737;SDS011;4405;49.272;8.590;2023-09-19T00:04:59;3.03;;;1.40;;
8737;SDS011;4405;49.272;8.590;2023-09-19T00:07:28;1.50;;;1.17;;
8737;SDS011;4405;49.272;8.590;2023-09-19T00:09:54;2.40;;;1.17;;
8737;SDS011;4405;49.272;8.590;2023-09-19T00:12:22;1.10;;;1.10;;
8737;SDS011;4405;49.272;8.590;2023-09-19T00:14:49;2.90;;;1.30;;
8737;SDS011;4405;49.272;8.590;2023-09-19T00:17:16;2.20;;;1.10;;
8737;SDS011;4405;49.272;8.590;2023-09-19T00:19:42;3.07;;;1.30;;
8737;SDS011;4405;49.272;8.590;2023-09-19T00:22:10;3.50;;;1.40;;
8737;SDS011;4405;49.272;8.590;2023-09-19T00:24:38;2.00;;;1.30;;
8737;SDS011;4405;49.272;8.590;2023-09-19T00:27:05;2.43;;;1.20;;
8737;SDS011;4405;49.272;8.590;2023-09-19T00:29:33;2.00;;;1.30;;
8737;SDS011;4405;49.272;8.590;2023-09-19T00:31:59;1.50;;;1.40;;
8737;SDS011;4405;49.272;8.590;2023-09-19T00:34:26;2.10;;;1.43;;
8737;SDS011;4405;49.272;8.590;2023-09-19T00:36:53;1.57;;;1.23;;
8737;SDS011;4405;49.272;8.590;2023-09-19T00:39:20;1.47;;;1.37;;
8737;SDS011;4405;49.272;8.590;2023-09-19T00:41:47;2.00;;;1.40;;
8737;SDS011;4405;49.272;8.590;2023-09-19T00:44:13;1.50;;;1.30;;
8737;SDS011;4405;49.272;8.590;2023-09-19T00:46:41;3.90;;;1.30;;
8737;SDS011;4405;49.272;8.590;2023-09-19T00:49:07;1.23;;;1.20;;
8737;SDS011;4405;49.272;8.590;2023-09-19T00:51:34;1.33;;;1.30;;
8737;SDS011;4405;49.272;8.590;2023-09-19T00:54:01;2.77;;;1.30;;
8737;SDS011;4405;49.272;8.590;2023-09-19T00:56:30;1.30;;;1.20;;
8737;SDS011;4405;49.272;8.590;2023-09-19T00:58:57;5.70;;;1.40;;
8737;SDS011;4405;49.272;8.590;2023-09-19T01:01:23;1.30;;;1.20;;
8737;SDS011;4405;49.272;8.590;2023-09-19T01:03:50;2.27;;;1.30;;
8737;SDS011;4405;49.272;8.590;2023-09-19T01:06:17;2.57;;;1.40;;
8737;SDS011;4405;49.272;8.590;2023-09-19T01:08:43;1.10;;;1.10;;
8737;SDS011;4405;49.272;8.590;2023-09-19T01:11:11;1.73;;;1.10;;
8737;SDS011;4405;49.272;8.590;2023-09-19T01:13:43;1.23;;;1.20;;
8737;SDS011;4405;49.272;8.590;2023-09-19T01:16:14;1.90;;;1.30;;
8737;SDS011;4405;49.272;8.590;2023-09-19T01:18:47;1.40;;;1.30;;
8737;SDS011;4405;49.272;8.590;2023-09-19T01:21:21;2.23;;;1.20;;
8737;SDS011;4405;49.272;8.590;2023-09-19T01:24:03;1.20;;;1.13;;
8737;SDS011;4405;49.272;8.590;2023-09-19T01:26:39;1.43;;;1.03;;
8737;SDS011;4405;49.272;8.590;2023-09-19T01:29:16;1.30;;;1.20;;
8737;SDS011;4405;49.272;8.590;2023-09-19T01:31:47;3.83;;;1.20;;
8737;SDS011;4405;49.272;8.590;2023-09-19T01:34:15;2.57;;;1.20;;
8737;SDS011;4405;49.272;8.590;2023-09-19T01:36:43;3.80;;;1.43;;
8737;SDS011;4405;49.272;8.590;2023-09-19T01:39:10;3.17;;;1.30;;
8737;SDS011;4405;49.272;8.590;2023-09-19T01:41:40;1.37;;;1.37;;
8737;SDS011;4405;49.272;8.590;2023-09-19T01:44:09;1.33;;;1.30;;
8737;SDS011;4405;49.272;8.590;2023-09-19T01:46:39;1.37;;;1.27;;
8737;SDS011;4405;49.272;8.590;2023-09-19T01:49:09;2.20;;;1.00;;
8737;SDS011;4405;49.272;8.590;2023-09-19T01:51:43;1.80;;;1.20;;
8737;SDS011;4405;49.272;8.590;2023-09-19T01:54:12;1.33;;;1.10;;
8737;SDS011;4405;49.272;8.590;2023-09-19T01:56:45;2.33;;;1.30;;
8737;SDS011;4405;49.272;8.590;2023-09-19T01:59:16;1.17;;;1.13;;
8737;SDS011;4405;49.272;8.590;2023-09-19T02:01:44;1.20;;;1.20;;
8737;SDS011;4405;49.272;8.590;2023-09-19T02:04:12;1.57;;;1.43;;
8737;SDS011;4405;49.272;8.590;2023-09-19T02:06:39;1.20;;;1.20;;
8737;SDS011;4405;49.272;8.590;2023-09-19T02:09:06;2.87;;;1.20;;
8737;SDS011;4405;49.272;8.590;2023-09-19T02:11:32;1.40;;;1.30;;
8737;SDS011;4405;49.272;8.590;2023-09-19T02:13:58;1.93;;;1.17;;
8737;SDS011;4405;49.272;8.590;2023-09-19T02:16:25;2.80;;;1.10;;
8737;SDS011;4405;49.272;8.590;2023-09-19T02:18:51;2.77;;;1.20;;
8737;SDS011;4405;49.272;8.590;2023-09-19T02:21:19;5.03;;;1.27;;
8737;SDS011;4405;49.272;8.590;2023-09-19T02:23:46;1.90;;;1.40;;
8737;SDS011;4405;49.272;8.590;2023-09-19T02:26:13;2.27;;;1.27;;
8737;SDS011;4405;49.272;8.590;2023-09-19T02:28:39;2.73;;;1.27;;
8737;SDS011;4405;49.272;8.590;2023-09-19T02:31:06;1.07;;;1.07;;
8737;SDS011;4405;49.272;8.590;2023-09-19T02:33:33;2.83;;;1.40;;
8737;SDS011;4405;49.272;8.590;2023-09-19T02:36:00;2.47;;;1.50;;
8737;SDS011;4405;49.272;8.590;2023-09-19T02:38:30;2.73;;;1.50;;
8737;SDS011;4405;49.272;8.590;2023-09-19T02:40:56;1.53;;;1.40;;
8737;SDS011;4405;49.272;8.590;2023-09-19T02:43:23;3.90;;;1.40;;
8737;SDS011;4405;49.272;8.590;2023-09-19T02:45:49;1.67;;;1.20;;
8737;SDS011;4405;49.272;8.590;2023-09-19T02:48:18;1.20;;;1.20;;
8737;SDS011;4405;49.272;8.590;2023-09-19T02:50:46;1.40;;;1.30;;
8737;SDS011;4405;49.272;8.590;2023-09-19T02:53:12;1.73;;;1.50;;
8737;SDS011;4405;49.272;8.590;2023-09-19T02:55:40;1.37;;;1.27;;
8737;SDS011;4405;49.272;8.590;2023-09-19T02:58:07;1.67;;;1.20;;
8737;SDS011;4405;49.272;8.590;2023-09-19T03:00:36;3.57;;;1.30;;
8737;SDS011;4405;49.272;8.590;2023-09-19T03:03:02;1.40;;;1.40;;
8737;SDS011;4405;49.272;8.590;2023-09-19T03:05:31;1.40;;;1.30;;
8737;SDS011;4405;49.272;8.590;2023-09-19T03:07:58;1.50;;;1.43;;
8737;SDS011;4405;49.272;8.590;2023-09-19T03:10:25;1.60;;;1.50;;
8737;SDS011;4405;49.272;8.590;2023-09-19T03:12:54;1.63;;;1.30;;
8737;SDS011;4405;49.272;8.590;2023-09-19T03:15:20;1.90;;;1.60;;
8737;SDS011;4405;49.272;8.590;2023-09-19T03:17:47;3.03;;;1.43;;
8737;SDS011;4405;49.272;8.590;2023-09-19T03:20:14;2.37;;;1.50;;
8737;SDS011;4405;49.272;8.590;2023-09-19T03:22:42;1.80;;;1.70;;
8737;SDS011;4405;49.272;8.590;2023-09-19T03:25:08;1.80;;;1.60;;
8737;SDS011;4405;49.272;8.590;2023-09-19T03:27:36;1.70;;;1.60;;
8737;SDS011;4405;49.272;8.590;2023-09-19T03:30:05;1.60;;;1.50;;
8737;SDS011;4405;49.272;8.590;2023-09-19T03:32:34;1.50;;;1.50;;
8737;SDS011;4405;49.272;8.590;2023-09-19T03:35:01;2.70;;;1.70;;
8737;SDS011;4405;49.272;8.590;2023-09-19T03:37:30;1.90;;;1.80;;
8737;SDS011;4405;49.272;8.590;2023-09-19T03:39:56;2.70;;;1.70;;
8737;SDS011;4405;49.272;8.590;2023-09-19T03:42:23;3.33;;;2.20;;
8737;SDS011;4405;49.272;8.590;2023-09-19T03:44:51;2.27;;;1.80;;
8737;SDS011;4405;49.272;8.590;2023-09-19T03:47:21;2.43;;;2.23;;
8737;SDS011;4405;49.272;8.590;2023-09-19T03:49:47;2.63;;;1.70;;
8737;SDS011;4405;49.272;8.590;2023-09-19T03:52:14;3.17;;;2.20;;
8737;SDS011;4405;49.272;8.590;2023-09-19T03:54:40;2.20;;;2.00;;
8737;SDS011;4405;49.272;8.590;2023-09-19T03:57:07;4.50;;;2.10;;
8737;SDS011;4405;49.272;8.590;2023-09-19T03:59:34;5.73;;;1.80;;
8737;SDS011;4405;49.272;8.590;2023-09-19T04:02:01;2.37;;;1.90;;
8737;SDS011;4405;49.272;8.590;2023-09-19T04:04:29;2.43;;;2.20;;
8737;SDS011;4405;49.272;8.590;2023-09-19T04:06:56;4.00;;;1.80;;
8737;SDS011;4405;49.272;8.590;2023-09-19T04:09:22;1.93;;;1.57;;
8737;SDS011;4405;49.272;8.590;2023-09-19T04:11:49;2.63;;;1.87;;
8737;SDS011;4405;49.272;8.590;2023-09-19T04:14:16;3.33;;;2.17;;
8737;SDS011;4405;49.272;8.590;2023-09-19T04:16:42;1.80;;;1.57;;
8737;SDS011;4405;49.272;8.590;2023-09-19T04:19:08;3.53;;;2.00;;
8737;SDS011;4405;49.272;8.590;2023-09-19T04:21:36;2.40;;;1.70;;
8737;SDS011;4405;49.272;8.590;2023-09-19T04:24:03;1.87;;;1.63;;
8737;SDS011;4405;49.272;8.590;2023-09-19T04:26:29;1.97;;;1.87;;
8737;SDS011;4405;49.272;8.590;2023-09-19T04:28:55;2.73;;;1.90;;
8737;SDS011;4405;49.272;8.590;2023-09-19T04:31:22;2.07;;;1.90;;
8737;SDS011;4405;49.272;8.590;2023-09-19T04:33:48;2.43;;;1.70;;
8737;SDS011;4405;49.272;8.590;2023-09-19T04:36:14;3.23;;;2.50;;
8737;SDS011;4405;49.272;8.590;2023-09-19T04:38:42;3.50;;;1.90;;
8737;SDS011;4405;49.272;8.590;2023-09-19T04:41:08;2.10;;;2.00;;
8737;SDS011;4405;49.272;8.590;2023-09-19T04:43:35;6.17;;;2.30;;
8737;SDS011;4405;49.272;8.590;2023-09-19T04:46:01;4.47;;;2.67;;
8737;SDS011;4405;49.272;8.590;2023-09-19T04:48:28;3.90;;;2.43;;
8737;SDS011;4405;49.272;8.590;2023-09-19T04:50:55;1.97;;;1.87;;
8737;SDS011;4405;49.272;8.590;2023-09-19T04:53:21;2.70;;;2.10;;
8737;SDS011;4405;49.272;8.590;2023-09-19T04:55:51;2.43;;;2.07;;
8737;SDS011;4405;49.272;8.590;2023-09-19T04:58:20;4.67;;;1.90;;
8737;SDS011;4405;49.272;8.590;2023-09-19T05:00:46;6.23;;;1.87;;
8737;SDS011;4405;49.272;8.590;2023-09-19T05:03:13;2.00;;;1.73;;
8737;SDS011;4405;49.272;8.590;2023-09-19T05:05:39;2.30;;;2.20;;
8737;SDS011;4405;49.272;8.590;2023-09-19T05:08:06;2.40;;;1.90;;
8737;SDS011;4405;49.272;8.590;2023-09-19T05:10:34;3.10;;;1.50;;
8737;SDS011;4405;49.272;8.590;2023-09-19T05:13:04;5.83;;;1.90;;
8737;SDS011;4405;49.272;8.590;2023-09-19T05:15:32;5.07;;;1.90;;
8737;SDS011;4405;49.272;8.590;2023-09-19T05:17:58;5.80;;;2.30;;
8737;SDS011;4405;49.272;8.590;2023-09-19T05:20:25;3.83;;;1.90;;
8737;SDS011;4405;49.272;8.590;2023-09-19T05:22:58;3.37;;;1.80;;
8737;SDS011;4405;49.272;8.590;2023-09-19T05:25:24;2.90;;;1.53;;
8737;SDS011;4405;49.272;8.590;2023-09-19T05:27:54;2.30;;;1.77;;
8737;SDS011;4405;49.272;8.590;2023-09-19T05:30:22;2.57;;;1.80;;
8737;SDS011;4405;49.272;8.590;2023-09-19T05:32:48;4.40;;;1.83;;
8737;SDS011;4405;49.272;8.590;2023-09-19T05:35:16;2.07;;;1.77;;
8737;SDS011;4405;49.272;8.590;2023-09-19T05:37:42;6.03;;;1.97;;
8737;SDS011;4405;49.272;8.590;2023-09-19T05:40:09;2.20;;;2.00;;
8737;SDS011;4405;49.272;8.590;2023-09-19T05:42:37;5.47;;;2.10;;
8737;SDS011;4405;49.272;8.590;2023-09-19T05:45:04;2.57;;;1.70;;
8737;SDS011;4405;49.272;8.590;2023-09-19T05:47:33;4.67;;;2.23;;
8737;SDS011;4405;49.272;8.590;2023-09-19T05:49:59;5.80;;;1.90;;
8737;SDS011;4405;49.272;8.590;2023-09-19T05:52:25;2.50;;;2.00;;
8737;SDS011;4405;49.272;8.590;2023-09-19T05:54:52;3.57;;;2.20;;
8737;SDS011;4405;49.272;8.590;2023-09-19T05:57:18;4.13;;;2.00;;
8737;SDS011;4405;49.272;8.590;2023-09-19T05:59:44;4.30;;;2.47;;
8737;SDS011;4405;49.272;8.590;2023-09-19T06:02:11;3.83;;;1.83;;
8737;SDS011;4405;49.272;8.590;2023-09-19T06:04:39;2.60;;;2.10;;
8737;SDS011;4405;49.272;8.590;2023-09-19T06:07:06;4.43;;;1.90;;
8737;SDS011;4405;49.272;8.590;2023-09-19T06:09:32;2.33;;;1.80;;
8737;SDS011;4405;49.272;8.590;2023-09-19T06:11:59;2.30;;;2.10;;
8737;SDS011;4405;49.272;8.590;2023-09-19T06:14:28;6.03;;;2.20;;
8737;SDS011;4405;49.272;8.590;2023-09-19T06:16:55;2.40;;;1.70;;
8737;SDS011;4405;49.272;8.590;2023-09-19T06:19:22;2.20;;;2.00;;
8737;SDS011;4405;49.272;8.590;2023-09-19T06:21:53;6.53;;;2.27;;
8737;SDS011;4405;49.272;8.590;2023-09-19T06:24:20;3.87;;;2.03;;
8737;SDS011;4405;49.272;8.590;2023-09-19T06:26:46;4.40;;;2.00;;
8737;SDS011;4405;49.272;8.590;2023-09-19T06:29:12;4.60;;;2.53;;
8737;SDS011;4405;49.272;8.590;2023-09-19T06:31:39;2.00;;;1.90;;
8737;SDS011;4405;49.272;8.590;2023-09-19T06:34:05;5.83;;;2.40;;
8737;SDS011;4405;49.272;8.590;2023-09-19T06:36:32;3.07;;;2.20;;
8737;SDS011;4405;49.272;8.590;2023-09-19T06:38:59;2.00;;;1.83;;
8737;SDS011;4405;49.272;8.590;2023-09-19T06:41:26;4.27;;;2.30;;
8737;SDS011;4405;49.272;8.590;2023-09-19T06:43:52;3.17;;;2.00;;
8737;SDS011;4405;49.272;8.590;2023-09-19T06:46:19;4.10;;;1.93;;
8737;SDS011;4405;49.272;8.590;2023-09-19T06:48:46;3.50;;;2.00;;
8737;SDS011;4405;49.272;8.590;2023-09-19T06:51:12;3.40;;;2.07;;
8737;SDS011;4405;49.272;8.590;2023-09-19T06:53:40;2.87;;;1.90;;
8737;SDS011;4405;49.272;8.590;2023-09-19T06:56:08;2.07;;;1.97;;
8737;SDS011;4405;49.272;8.590;2023-09-19T06:58:35;3.20;;;2.03;;
8737;SDS011;4405;49.272;8.590;2023-09-19T07:01:02;2.37;;;1.97;;
8737;SDS011;4405;49.272;8.590;2023-09-19T07:03:29;2.37;;;1.73;;
8737;SDS011;4405;49.272;8.590;2023-09-19T07:05:58;2.30;;;2.10;;
8737;SDS011;4405;49.272;8.590;2023-09-19T07:08:24;2.00;;;1.90;;
8737;SDS011;4405;49.272;8.590;2023-09-19T07:10:51;6.10;;;2.00;;
8737;SDS011;4405;49.272;8.590;2023-09-19T07:13:19;1.90;;;1.70;;
8737;SDS011;4405;49.272;8.590;2023-09-19T07:15:45;5.97;;;1.80;;
8737;SDS011;4405;49.272;8.590;2023-09-19T07:18:15;2.73;;;1.90;;
8737;SDS011;4405;49.272;8.590;2023-09-19T07:20:42;3.67;;;1.87;;
8737;SDS011;4405;49.272;8.590;2023-09-19T07:23:10;4.30;;;2.07;;
8737;SDS011;4405;49.272;8.590;2023-09-19T07:25:39;3.47;;;1.70;;
8737;SDS011;4405;49.272;8.590;2023-09-19T07:28:05;1.70;;;1.60;;
8737;SDS011;4405;49.272;8.590;2023-09-19T07:30:35;3.33;;;1.80;;
8737;SDS011;4405;49.272;8.590;2023-09-19T07:33:02;1.70;;;1.60;;
8737;SDS011;4405;49.272;8.590;2023-09-19T07:35:29;2.80;;;1.70;;
8737;SDS011;4405;49.272;8.590;2023-09-19T07:37:55;1.93;;;1.80;;
8737;SDS011;4405;49.272;8.590;2023-09-19T07:40:26;3.67;;;1.80;;
8737;SDS011;4405;49.272;8.590;2023-09-19T07:42:54;2.37;;;2.00;;
8737;SDS011;4405;49.272;8.590;2023-09-19T07:45:20;2.93;;;1.87;;
8737;SDS011;4405;49.272;8.590;2023-09-19T07:47:49;3.07;;;1.50;;
8737;SDS011;4405;49.272;8.590;2023-09-19T07:50:16;4.63;;;1.60;;
8737;SDS011;4405;49.272;8.590;2023-09-19T07:52:43;2.50;;;1.80;;
8737;SDS011;4405;49.272;8.590;2023-09-19T07:55:10;4.33;;;1.90;;
8737;SDS011;4405;49.272;8.590;2023-09-19T07:57:41;3.77;;;1.67;;
8737;SDS011;4405;49.272;8.590;2023-09-19T08:00:07;5.47;;;2.03;;
8737;SDS011;4405;49.272;8.590;2023-09-19T08:02:35;2.87;;;1.80;;
8737;SDS011;4405;49.272;8.590;2023-09-19T08:05:04;3.80;;;1.60;;
8737;SDS011;4405;49.272;8.590;2023-09-19T08:07:34;3.17;;;1.50;;
8737;SDS011;4405;49.272;8.590;2023-09-19T08:10:01;2.37;;;1.30;;
8737;SDS011;4405;49.272;8.590;2023-09-19T08:12:27;4.67;;;1.50;;
8737;SDS011;4405;49.272;8.590;2023-09-19T08:14:55;3.13;;;1.57;;
8737;SDS011;4405;49.272;8.590;2023-09-19T08:17:21;3.13;;;1.33;;
8737;SDS011;4405;49.272;8.590;2023-09-19T08:19:48;3.43;;;1.67;;
8737;SDS011;4405;49.272;8.590;2023-09-19T08:22:19;1.50;;;1.43;;
8737;SDS011;4405;49.272;8.590;2023-09-19T08:24:46;2.87;;;1.60;;
8737;SDS011;4405;49.272;8.590;2023-09-19T08:27:13;1.67;;;1.53;;
8737;SDS011;4405;49.272;8.590;2023-09-19T08:29:40;2.60;;;1.40;;
8737;SDS011;4405;49.272;8.590;2023-09-19T08:32:07;3.83;;;1.50;;
8737;SDS011;4405;49.272;8.590;2023-09-19T08:34:33;3.33;;;1.60;;
8737;SDS011;4405;49.272;8.590;2023-09-19T08:37:03;3.50;;;1.43;;
8737;SDS011;4405;49.272;8.590;2023-09-19T08:39:31;3.20;;;1.40;;
8737;SDS011;4405;49.272;8.590;2023-09-19T08:41:58;3.37;;;1.87;;
8737;SDS011;4405;49.272;8.590;2023-09-19T08:44:25;1.60;;;1.50;;
8737;SDS011;4405;49.272;8.590;2023-09-19T08:46:53;1.90;;;1.57;;
8737;SDS011;4405;49.272;8.590;2023-09-19T08:49:23;1.37;;;1.20;;
8737;SDS011;4405;49.272;8.590;2023-09-19T08:51:54;3.40;;;1.60;;
8737;SDS011;4405;49.272;8.590;2023-09-19T08:54:24;2.13;;;1.30;;
8737;SDS011;4405;49.272;8.590;2023-09-19T08:56:52;1.40;;;1.30;;
8737;SDS011;4405;49.272;8.590;2023-09-19T08:59:20;3.13;;;1.60;;
8737;SDS011;4405;49.272;8.590;2023-09-19T09:01:49;2.50;;;1.43;;
8737;SDS011;4405;49.272;8.590;2023-09-19T09:04:18;1.73;;;1.63;;
8737;SDS011;4405;49.272;8.590;2023-09-19T09:06:45;2.13;;;1.70;;
8737;SDS011;4405;49.272;8.590;2023-09-19T09:09:13;2.70;;;1.40;;
8737;SDS011;4405;49.272;8.590;2023-09-19T09:11:40;2.40;;;1.50;;
8737;SDS011;4405;49.272;8.590;2023-09-19T09:14:08;5.90;;;1.63;;
8737;SDS011;4405;49.272;8.590;2023-09-19T09:16:34;1.47;;;1.37;;
8737;SDS011;4405;49.272;8.590;2023-09-19T09:19:01;4.00;;;1.73;;
8737;SDS011;4405;49.272;8.590;2023-09-19T09:21:27;2.53;;;1.53;;
8737;SDS011;4405;49.272;8.590;2023-09-19T09:23:53;5.97;;;1.60;;
8737;SDS011;4405;49.272;8.590;2023-09-19T09:26:30;2.47;;;1.77;;
8737;SDS011;4405;49.272;8.590;2023-09-19T09:29:07;2.30;;;1.60;;
8737;SDS011;4405;49.272;8.590;2023-09-19T09:31:34;2.07;;;1.57;;
8737;SDS011;4405;49.272;8.590;2023-09-19T09:34:00;1.80;;;1.60;;
8737;SDS011;4405;49.272;8.590;2023-09-19T09:36:36;1.60;;;1.50;;
8737;SDS011;4405;49.272;8.590;2023-09-19T09:39:03;1.93;;;1.57;;
8737;SDS011;4405;49.272;8.590;2023-09-19T09:41:41;1.60;;;1.40;;
8737;SDS011;4405;49.272;8.590;2023-09-19T09:44:13;1.87;;;1.60;;
8737;SDS011;4405;49.272;8.590;2023-09-19T09:46:42;2.63;;;1.70;;
8737;SDS011;4405;49.272;8.590;2023-09-19T09:49:40;1.60;;;1.50;;
8737;SDS011;4405;49.272;8.590;2023-09-19T09:52:15;4.23;;;1.73;;
8737;SDS011;4405;49.272;8.590;2023-09-19T09:54:57;2.43;;;1.70;;
8737;SDS011;4405;49.272;8.590;2023-09-19T09:57:24;4.80;;;1.50;;
8737;SDS011;4405;49.272;8.590;2023-09-19T09:59:53;1.93;;;1.70;;
8737;SDS011;4405;49.272;8.590;2023-09-19T10:02:21;2.10;;;1.73;;
8737;SDS011;4405;49.272;8.590;2023-09-19T10:04:51;1.50;;;1.40;;
8737;SDS011;4405;49.272;8.590;2023-09-19T10:07:39;4.80;;;1.97;;
8737;SDS011;4405;49.272;8.590;2023-09-19T10:10:07;2.27;;;1.40;;
8737;SDS011;4405;49.272;8.590;2023-09-19T10:12:42;4.50;;;1.60;;
8737;SDS011;4405;49.272;8.590;2023-09-19T10:15:10;1.27;;;1.27;;
8737;SDS011;4405;49.272;8.590;2023-09-19T10:17:41;1.97;;;1.60;;
8737;SDS011;4405;49.272;8.590;2023-09-19T10:20:10;1.60;;;1.50;;
8737;SDS011;4405;49.272;8.590;2023-09-19T10:22:47;2.10;;;1.90;;
8737;SDS011;4405;49.272;8.590;2023-09-19T10:25:22;1.73;;;1.37;;
8737;SDS011;4405;49.272;8.590;2023-09-19T10:27:50;4.07;;;1.53;;
8737;SDS011;4405;49.272;8.590;2023-09-19T10:30:20;2.13;;;1.30;;
8737;SDS011;4405;49.272;8.590;2023-09-19T10:32:46;3.07;;;1.60;;
8737;SDS011;4405;49.272;8.590;2023-09-19T10:35:15;2.67;;;1.50;;
8737;SDS011;4405;49.272;8.590;2023-09-19T10:37:43;1.57;;;1.47;;
8737;SDS011;4405;49.272;8.590;2023-09-19T10:40:11;1.50;;;1.40;;
8737;SDS011;4405;49.272;8.590;2023-09-19T10:42:40;3.47;;;1.60;;
8737;SDS011;4405;49.272;8.590;2023-09-19T10:45:08;2.70;;;1.50;;
8737;SDS011;4405;49.272;8.590;2023-09-19T10:47:39;2.20;;;1.50;;
8737;SDS011;4405;49.272;8.590;2023-09-19T10:50:06;2.60;;;1.67;;
8737;SDS011;4405;49.272;8.590;2023-09-19T10:52:38;1.90;;;1.40;;
8737;SDS011;4405;49.272;8.590;2023-09-19T10:55:06;1.60;;;1.50;;
8737;SDS011;4405;49.272;8.590;2023-09-19T10:57:34;6.53;;;1.47;;
8737;SDS011;4405;49.272;8.590;2023-09-19T11:00:02;1.70;;;1.50;;
8737;SDS011;4405;49.272;8.590;2023-09-19T11:02:50;3.07;;;1.73;;
8737;SDS011;4405;49.272;8.590;2023-09-19T11:05:37;1.57;;;1.20;;
8737;SDS011;4405;49.272;8.590;2023-09-19T11:08:06;2.37;;;1.40;;
8737;SDS011;4405;49.272;8.590;2023-09-19T11:10:45;1.30;;;1.30;;
8737;SDS011;4405;49.272;8.590;2023-09-19T11:13:24;1.60;;;1.50;;
8737;SDS011;4405;49.272;8.590;2023-09-19T11:18:52;3.03;;;1.33;;
8737;SDS011;4405;49.272;8.590;2023-09-19T11:24:28;1.50;;;1.40;;
8737;SDS011;4405;49.272;8.590;2023-09-19T11:27:08;2.73;;;1.57;;
8737;SDS011;4405;49.272;8.590;2023-09-19T11:29:35;4.73;;;1.57;;
8737;SDS011;4405;49.272;8.590;2023-09-19T11:32:02;1.47;;;1.40;;
8737;SDS011;4405;49.272;8.590;2023-09-19T11:34:39;1.30;;;1.30;;
8737;SDS011;4405;49.272;8.590;2023-09-19T11:40:06;1.60;;;1.50;;
8737;SDS011;4405;49.272;8.590;2023-09-19T11:42:41;1.37;;;1.27;;
8737;SDS011;4405;49.272;8.590;2023-09-19T11:45:07;2.30;;;1.50;;
8737;SDS011;4405;49.272;8.590;2023-09-19T11:47:34;3.00;;;1.60;;
8737;SDS011;4405;49.272;8.590;2023-09-19T11:50:02;1.73;;;1.40;;
8737;SDS011;4405;49.272;8.590;2023-09-19T11:52:33;1.40;;;1.30;;
8737;SDS011;4405;49.272;8.590;2023-09-19T11:55:04;2.00;;;1.50;;
8737;SDS011;4405;49.272;8.590;2023-09-19T11:57:34;1.70;;;1.60;;
8737;SDS011;4405;49.272;8.590;2023-09-19T12:00:01;1.73;;;1.33;;
8737;SDS011;4405;49.272;8.590;2023-09-19T12:02:31;2.03;;;1.70;;
8737;SDS011;4405;49.272;8.590;2023-09-19T12:05:03;1.80;;;1.70;;
8737;SDS011;4405;49.272;8.590;2023-09-19T12:07:30;4.47;;;1.80;;
8737;SDS011;4405;49.272;8.590;2023-09-19T12:10:08;2.47;;;1.50;;
8737;SDS011;4405;49.272;8.590;2023-09-19T12:12:36;5.13;;;1.67;;
8737;SDS011;4405;49.272;8.590;2023-09-19T12:15:03;2.80;;;1.73;;
8737;SDS011;4405;49.272;8.590;2023-09-19T12:17:35;3.20;;;1.70;;
8737;SDS011;4405;49.272;8.590;2023-09-19T12:20:01;1.67;;;1.50;;
8737;SDS011;4405;49.272;8.590;2023-09-19T12:22:42;2.17;;;1.60;;
8737;SDS011;4405;49.272;8.590;2023-09-19T12:25:09;1.60;;;1.50;;
8737;SDS011;4405;49.272;8.590;2023-09-19T12:27:41;1.83;;;1.53;;
8737;SDS011;4405;49.272;8.590;2023-09-19T12:30:09;1.37;;;1.30;;
8737;SDS011;4405;49.272;8.590;2023-09-19T12:32:35;1.77;;;1.50;;
8737;SDS011;4405;49.272;8.590;2023-09-19T12:35:05;1.67;;;1.30;;
8737;SDS011;4405;49.272;8.590;2023-09-19T12:37:36;2.50;;;1.60;;
8737;SDS011;4405;49.272;8.590;2023-09-19T12:40:05;1.80;;;1.70;;
8737;SDS011;4405;49.272;8.590;2023-09-19T12:42:41;4.40;;;1.80;;
8737;SDS011;4405;49.272;8.590;2023-09-19T12:45:08;2.97;;;1.93;;
8737;SDS011;4405;49.272;8.590;2023-09-19T12:47:35;1.87;;;1.70;;
8737;SDS011;4405;49.272;8.590;2023-09-19T12:50:08;1.50;;;1.40;;
8737;SDS011;4405;49.272;8.590;2023-09-19T12:52:38;1.67;;;1.57;;
8737;SDS011;4405;49.272;8.590;2023-09-19T12:55:07;2.63;;;1.30;;
8737;SDS011;4405;49.272;8.590;2023-09-19T12:57:34;2.53;;;1.50;;
8737;SDS011;4405;49.272;8.590;2023-09-19T13:00:01;1.40;;;1.30;;
8737;SDS011;4405;49.272;8.590;2023-09-19T13:02:29;1.70;;;1.60;;
8737;SDS011;4405;49.272;8.590;2023-09-19T13:04:55;2.07;;;1.60;;
8737;SDS011;4405;49.272;8.590;2023-09-19T13:07:40;1.63;;;1.50;;
8737;SDS011;4405;49.272;8.590;2023-09-19T13:10:12;1.67;;;1.53;;
8737;SDS011;4405;49.272;8.590;2023-09-19T13:12:40;2.20;;;1.50;;
8737;SDS011;4405;49.272;8.590;2023-09-19T13:15:08;1.70;;;1.60;;
8737;SDS011;4405;49.272;8.590;2023-09-19T13:17:45;2.57;;;1.60;;
8737;SDS011;4405;49.272;8.590;2023-09-19T13:20:20;6.93;;;1.53;;
8737;SDS011;4405;49.272;8.590;2023-09-19T13:22:49;1.70;;;1.60;;
8737;SDS011;4405;49.272;8.590;2023-09-19T13:25:20;2.13;;;1.57;;
8737;SDS011;4405;49.272;8.590;2023-09-19T13:27:47;1.80;;;1.50;;
8737;SDS011;4405;49.272;8.590;2023-09-19T13:30:16;1.47;;;1.37;;
8737;SDS011;4405;49.272;8.590;2023-09-19T13:32:43;1.43;;;1.40;;
8737;SDS011;4405;49.272;8.590;2023-09-19T13:35:10;1.60;;;1.50;;
8737;SDS011;4405;49.272;8.590;2023-09-19T13:37:38;6.00;;;1.90;;
8737;SDS011;4405;49.272;8.590;2023-09-19T13:40:06;1.60;;;1.50;;
8737;SDS011;4405;49.272;8.590;2023-09-19T13:42:34;2.63;;;1.00;;
8737;SDS011;4405;49.272;8.590;2023-09-19T13:45:01;2.03;;;1.60;;
8737;SDS011;4405;49.272;8.590;2023-09-19T13:47:29;1.63;;;1.50;;
8737;SDS011;4405;49.272;8.590;2023-09-19T13:49:55;13.83;;;1.97;;
8737;SDS011;4405;49.272;8.590;2023-09-19T13:52:22;1.43;;;1.33;;
8737;SDS011;4405;49.272;8.590;2023-09-19T13:54:48;3.47;;;1.70;;
8737;SDS011;4405;49.272;8.590;2023-09-19T13:57:15;1.67;;;1.43;;
8737;SDS011;4405;49.272;8.590;2023-09-19T13:59:42;2.53;;;1.57;;
8737;SDS011;4405;49.272;8.590;2023-09-19T14:02:09;2.73;;;1.37;;
8737;SDS011;4405;49.272;8.590;2023-09-19T14:04:35;2.30;;;1.33;;
8737;SDS011;4405;49.272;8.590;2023-09-19T14:07:02;1.40;;;1.30;;
8737;SDS011;4405;49.272;8.590;2023-09-19T14:09:28;4.97;;;1.50;;
8737;SDS011;4405;49.272;8.590;2023-09-19T14:11:55;1.50;;;1.40;;
8737;SDS011;4405;49.272;8.590;2023-09-19T14:14:22;1.37;;;1.27;;
8737;SDS011;4405;49.272;8.590;2023-09-19T14:16:49;1.30;;;1.30;;
8737;SDS011;4405;49.272;8.590;2023-09-19T14:19:17;1.37;;;1.27;;
8737;SDS011;4405;49.272;8.590;2023-09-19T14:21:43;3.33;;;1.60;;
8737;SDS011;4405;49.272;8.590;2023-09-19T14:24:10;1.30;;;1.20;;
8737;SDS011;4405;49.272;8.590;2023-09-19T14:26:36;2.13;;;1.37;;
8737;SDS011;4405;49.272;8.590;2023-09-19T14:29:03;1.63;;;1.50;;
8737;SDS011;4405;49.272;8.590;2023-09-19T14:31:29;2.40;;;1.40;;
8737;SDS011;4405;49.272;8.590;2023-09-19T14:33:57;1.23;;;1.23;;
8737;SDS011;4405;49.272;8.590;2023-09-19T14:36:24;1.30;;;1.30;;
8737;SDS011;4405;49.272;8.590;2023-09-19T14:38:52;1.13;;;1.13;;
8737;SDS011;4405;49.272;8.590;2023-09-19T14:41:19;2.30;;;1.33;;
8737;SDS011;4405;49.272;8.590;2023-09-19T14:43:46;1.80;;;1.47;;
8737;SDS011;4405;49.272;8.590;2023-09-19T14:46:12;3.90;;;1.20;;
8737;SDS011;4405;49.272;8.590;2023-09-19T14:48:39;1.40;;;1.30;;
8737;SDS011;4405;49.272;8.590;2023-09-19T14:51:07;2.57;;;1.30;;
8737;SDS011;4405;49.272;8.590;2023-09-19T14:53:34;1.40;;;1.20;;
8737;SDS011;4405;49.272;8.590;2023-09-19T14:56:00;1.20;;;1.20;;
8737;SDS011;4405;49.272;8.590;2023-09-19T14:58:28;3.60;;;1.30;;
8737;SDS011;4405;49.272;8.590;2023-09-19T15:01:01;1.00;;;1.00;;
8737;SDS011;4405;49.272;8.590;2023-09-19T15:03:28;1.57;;;1.37;;
8737;SDS011;4405;49.272;8.590;2023-09-19T15:05:58;2.60;;;1.20;;
8737;SDS011;4405;49.272;8.590;2023-09-19T15:08:26;1.20;;;1.20;;
8737;SDS011;4405;49.272;8.590;2023-09-19T15:10:53;2.00;;;1.00;;
8737;SDS011;4405;49.272;8.590;2023-09-19T15:13:20;4.57;;;1.40;;
8737;SDS011;4405;49.272;8.590;2023-09-19T15:15:47;2.00;;;1.30;;
8737;SDS011;4405;49.272;8.590;2023-09-19T15:18:13;1.10;;;1.10;;
8737;SDS011;4405;49.272;8.590;2023-09-19T15:20:42;2.73;;;1.33;;
8737;SDS011;4405;49.272;8.590;2023-09-19T15:23:08;1.20;;;1.20;;
8737;SDS011;4405;49.272;8.590;2023-09-19T15:25:36;1.07;;;1.07;;
8737;SDS011;4405;49.272;8.590;2023-09-19T15:28:03;3.43;;;1.30;;
8737;SDS011;4405;49.272;8.590;2023-09-19T15:30:36;1.50;;;1.40;;